Time;durP1;ratioP1;P1;durP2;ratioP2;P2;SDS_P1;SDS_P2;PMS_P1;PMS_P2;Temp;Humidity;BMP_temperature;BMP_pressure;BME280_temperature;BME280_humidity;BME280_pressure;Samples;Min_cycle;Max_cycle;Signal;HPM_P1;HPM_P2
2020/12/04 00:00:32;;;;;;;10.43;6.57;;;2.20;99.90;;;;;;5093675;28;20448;-69
2020/12/04 00:02:58;;;;;;;9.43;6.00;;;2.20;99.90;;;;;;5093781;28;20923;-68
2020/12/04 00:05:25;;;;;;;10.57;6.87;;;2.30;99.90;;;;;;5093592;28;20460;-68
2020/12/04 00:07:51;;;;;;;9.90;6.37;;;2.50;99.90;;;;;;5093780;28;20433;-67
2020/12/04 00:10:17;;;;;;;10.73;7.00;;;2.50;99.90;;;;;;5093592;28;20456;-68
2020/12/04 00:12:44;;;;;;;8.70;6.30;;;2.40;99.90;;;;;;5093943;28;20444;-67
2020/12/04 00:15:10;;;;;;;9.93;6.53;;;2.40;99.90;;;;;;5093543;28;20903;-68
2020/12/04 00:17:36;;;;;;;10.60;7.43;;;2.40;99.90;;;;;;5093463;28;20424;-68
2020/12/04 00:20:04;;;;;;;11.37;6.93;;;2.40;99.90;;;;;;5093343;28;20464;-68
2020/12/04 00:22:31;;;;;;;9.80;6.23;;;2.40;99.90;;;;;;5093303;28;20443;-68
2020/12/04 00:24:57;;;;;;;11.27;6.80;;;2.40;99.90;;;;;;5093278;28;20497;-68
2020/12/04 00:27:24;;;;;;;9.87;6.60;;;2.50;99.90;;;;;;5093069;28;20934;-68
2020/12/04 00:29:50;;;;;;;11.93;6.90;;;2.40;99.90;;;;;;5093319;28;20470;-68
2020/12/04 00:32:16;;;;;;;10.60;7.60;;;2.40;99.90;;;;;;5093005;28;20447;-68
2020/12/04 00:34:42;;;;;;;11.33;6.27;;;2.60;99.90;;;;;;5092998;28;20471;-68
2020/12/04 00:37:08;;;;;;;14.00;6.80;;;2.50;99.90;;;;;;5094071;28;20443;-68
2020/12/04 00:39:35;;;;;;;10.43;6.20;;;2.50;99.90;;;;;;5097280;28;20460;-68
2020/12/04 00:42:02;;;;;;;12.90;7.57;;;2.50;99.90;;;;;;5097294;28;20447;-68
2020/12/04 00:44:28;;;;;;;12.23;7.43;;;2.40;99.90;;;;;;5097265;28;20444;-68
2020/12/04 00:46:54;;;;;;;10.63;6.70;;;2.40;99.90;;;;;;5096845;28;20865;-68
2020/12/04 00:49:20;;;;;;;12.07;7.00;;;2.30;99.90;;;;;;5097115;28;20459;-68
2020/12/04 00:51:47;;;;;;;13.63;7.63;;;2.30;99.90;;;;;;5097105;28;20471;-68
2020/12/04 00:54:13;;;;;;;12.03;6.67;;;2.30;99.90;;;;;;5097056;28;20440;-68
2020/12/04 00:56:40;;;;;;;12.70;7.63;;;2.40;99.90;;;;;;5097030;28;20443;-68
2020/12/04 00:59:06;;;;;;;12.53;7.70;;;2.40;99.90;;;;;;5096962;28;20483;-68
2020/12/04 01:01:33;;;;;;;10.30;6.90;;;2.40;99.90;;;;;;5097092;28;20456;-68
2020/12/04 01:03:59;;;;;;;10.33;6.47;;;2.50;99.90;;;;;;5096887;28;20424;-68
2020/12/04 01:06:25;;;;;;;13.47;7.67;;;2.50;99.90;;;;;;5096774;28;20479;-67
2020/12/04 01:08:52;;;;;;;10.57;6.90;;;2.50;99.90;;;;;;5096740;28;20424;-67
2020/12/04 01:11:20;;;;;;;12.10;7.00;;;2.40;99.90;;;;;;5096411;28;20913;-68
2020/12/04 01:13:47;;;;;;;10.43;6.87;;;2.40;99.90;;;;;;5096707;28;20432;-68
2020/12/04 01:16:13;;;;;;;10.67;6.80;;;2.30;99.90;;;;;;5096333;28;20953;-68
2020/12/04 01:18:40;;;;;;;13.37;7.00;;;2.20;99.90;;;;;;5096632;28;20435;-67
2020/12/04 01:21:07;;;;;;;9.53;6.60;;;2.30;99.90;;;;;;5096198;28;20970;-68
2020/12/04 01:23:33;;;;;;;14.13;7.00;;;2.30;99.90;;;;;;5096181;28;20444;-67
2020/12/04 01:25:59;;;;;;;12.10;6.70;;;2.30;99.90;;;;;;5096394;28;20490;-68
2020/12/04 01:28:25;;;;;;;10.70;6.80;;;2.40;99.90;;;;;;5096458;28;20793;-67
2020/12/04 01:30:52;;;;;;;8.47;6.17;;;2.40;99.90;;;;;;5096294;28;20464;-68
2020/12/04 01:33:19;;;;;;;11.63;6.37;;;2.40;99.90;;;;;;5096387;28;20427;-68
2020/12/04 01:35:45;;;;;;;9.63;6.50;;;2.40;99.90;;;;;;5095822;28;20510;-68
2020/12/04 01:38:11;;;;;;;11.13;6.20;;;2.40;99.90;;;;;;5096232;28;20444;-68
2020/12/04 01:40:37;;;;;;;9.13;5.67;;;2.50;99.90;;;;;;5096094;28;20467;-68
2020/12/04 01:43:04;;;;;;;10.07;7.07;;;2.60;99.90;;;;;;5096148;28;20891;-68
2020/12/04 01:45:34;;;;;;;10.13;6.83;;;2.60;99.90;;;;;;5095730;28;20963;-68
2020/12/04 01:48:02;;;;;;;9.13;6.80;;;2.50;99.90;;;;;;5095880;28;20421;-68
2020/12/04 01:50:29;;;;;;;8.13;5.80;;;2.40;99.90;;;;;;5095980;28;20456;-68
2020/12/04 01:52:55;;;;;;;10.87;6.97;;;2.40;99.90;;;;;;5095938;28;20412;-68
2020/12/04 01:55:22;;;;;;;9.80;6.30;;;2.50;99.90;;;;;;5095546;28;20815;-68
2020/12/04 01:57:48;;;;;;;11.20;6.37;;;2.50;99.90;;;;;;5095845;28;20426;-69
2020/12/04 02:00:14;;;;;;;10.77;6.80;;;2.60;99.90;;;;;;5095750;28;20824;-68
2020/12/04 02:02:42;;;;;;;10.00;6.77;;;2.60;99.90;;;;;;5095429;28;20950;-68
2020/12/04 02:05:10;;;;;;;7.90;5.83;;;2.50;99.90;;;;;;5095681;28;20519;-69
2020/12/04 02:07:46;;;;;;;10.83;6.03;;;2.50;99.90;;;;;;5095681;28;20447;-68
2020/12/04 02:10:17;;;;;;;10.47;6.20;;;2.50;99.90;;;;;;5095279;28;20974;-68
2020/12/04 02:12:44;;;;;;;12.40;6.40;;;2.50;99.90;;;;;;5095605;28;20420;-68
2020/12/04 02:15:10;;;;;;;12.83;7.33;;;2.40;99.90;;;;;;5095557;28;20445;-68
2020/12/04 02:17:37;;;;;;;11.03;7.30;;;2.50;99.90;;;;;;5095467;28;20435;-68
2020/12/04 02:20:05;;;;;;;9.50;5.93;;;2.50;99.90;;;;;;5095395;28;20431;-68
2020/12/04 02:22:36;;;;;;;10.93;6.10;;;2.60;99.90;;;;;;5095074;28;20436;-68
2020/12/04 02:25:03;;;;;;;10.00;6.37;;;2.50;99.90;;;;;;5095331;28;20440;-68
2020/12/04 02:27:29;;;;;;;11.07;7.13;;;2.50;99.90;;;;;;5095238;28;20475;-68
2020/12/04 02:29:56;;;;;;;11.83;7.30;;;2.60;99.90;;;;;;5095180;28;20460;-68
2020/12/04 02:32:22;;;;;;;10.87;6.20;;;2.50;99.90;;;;;;5095230;28;20423;-68
2020/12/04 02:34:48;;;;;;;10.43;6.17;;;2.40;99.90;;;;;;5094652;28;20475;-68
2020/12/04 02:37:14;;;;;;;12.53;6.77;;;2.30;99.90;;;;;;5095098;28;20432;-68
2020/12/04 02:39:41;;;;;;;10.83;6.30;;;2.30;99.90;;;;;;5094931;28;20471;-68
2020/12/04 02:42:08;;;;;;;10.50;6.90;;;2.30;99.90;;;;;;5095614;28;20425;-68
2020/12/04 02:44:34;;;;;;;9.90;6.47;;;2.30;99.90;;;;;;5094721;28;20900;-68
2020/12/04 02:47:01;;;;;;;9.50;5.97;;;2.30;99.90;;;;;;5094804;28;20490;-68
2020/12/04 02:49:27;;;;;;;9.87;6.00;;;2.40;99.90;;;;;;5094757;28;20464;-68
2020/12/04 02:51:54;;;;;;;8.10;6.13;;;2.40;99.90;;;;;;5094823;28;20416;-68
2020/12/04 02:54:21;;;;;;;8.93;6.10;;;2.30;99.90;;;;;;5094775;28;20557;-68
2020/12/04 02:56:48;;;;;;;11.40;6.70;;;2.30;99.90;;;;;;5094867;28;20467;-68
2020/12/04 02:59:14;;;;;;;10.47;6.33;;;2.30;99.90;;;;;;5094519;28;20452;-68
2020/12/04 03:01:40;;;;;;;7.87;5.90;;;2.30;99.90;;;;;;5094156;28;20436;-68
2020/12/04 03:04:07;;;;;;;10.10;6.47;;;2.20;99.90;;;;;;5094577;28;20444;-68
2020/12/04 03:06:33;;;;;;;10.60;6.60;;;2.20;99.90;;;;;;5094469;28;20475;-68
2020/12/04 03:09:00;;;;;;;10.80;6.00;;;2.20;99.90;;;;;;5094455;28;20431;-68
2020/12/04 03:11:26;;;;;;;11.73;5.93;;;2.30;99.90;;;;;;5094458;28;20497;-68
2020/12/04 03:13:53;;;;;;;12.60;6.80;;;2.20;99.90;;;;;;5094398;28;20463;-68
2020/12/04 03:16:19;;;;;;;11.57;6.10;;;2.20;99.90;;;;;;5094028;28;20906;-68
2020/12/04 03:18:46;;;;;;;13.57;5.90;;;2.10;99.90;;;;;;5094280;28;20451;-68
2020/12/04 03:21:12;;;;;;;10.67;6.47;;;2.10;99.90;;;;;;5094242;28;20440;-68
2020/12/04 03:23:38;;;;;;;9.13;5.97;;;2.10;99.90;;;;;;5094269;28;20452;-68
2020/12/04 03:26:04;;;;;;;10.97;6.43;;;2.10;99.90;;;;;;5094110;28;20472;-67
2020/12/04 03:28:31;;;;;;;9.80;5.70;;;2.20;99.90;;;;;;5094143;28;20451;-67
2020/12/04 03:30:59;;;;;;;11.50;6.07;;;2.10;99.90;;;;;;5094004;28;20460;-67
2020/12/04 03:33:25;;;;;;;11.10;6.80;;;2.10;99.90;;;;;;5093637;28;20483;-68
2020/12/04 03:35:52;;;;;;;7.47;5.10;;;2.10;99.90;;;;;;5094050;28;20420;-67
2020/12/04 03:38:18;;;;;;;11.40;6.27;;;2.20;99.90;;;;;;5093682;28;20483;-68
2020/12/04 03:40:45;;;;;;;10.50;6.20;;;2.30;99.90;;;;;;5093478;28;20901;-68
2020/12/04 03:43:12;;;;;;;9.33;6.27;;;2.30;99.90;;;;;;5093578;28;20932;-68
2020/12/04 03:45:38;;;;;;;11.80;7.30;;;2.30;99.90;;;;;;5093836;28;20420;-67
2020/12/04 03:48:05;;;;;;;8.43;6.40;;;2.30;99.90;;;;;;5093797;28;20444;-68
2020/12/04 03:50:31;;;;;;;12.73;6.87;;;2.30;99.90;;;;;;5093735;28;20467;-67
2020/12/04 03:52:57;;;;;;;13.37;7.20;;;2.30;99.90;;;;;;5093757;28;20436;-67
2020/12/04 03:55:23;;;;;;;9.90;6.33;;;2.30;99.90;;;;;;5093719;28;20446;-66
2020/12/04 03:57:50;;;;;;;12.20;7.17;;;2.30;99.90;;;;;;5093694;28;20436;-67
2020/12/04 04:00:16;;;;;;;11.53;7.10;;;2.30;99.90;;;;;;5093564;28;20467;-67
2020/12/04 04:02:42;;;;;;;12.13;7.10;;;2.40;99.90;;;;;;5093248;28;20436;-67
2020/12/04 04:05:09;;;;;;;12.47;7.37;;;2.40;99.90;;;;;;5093585;28;20443;-67
2020/12/04 04:07:35;;;;;;;10.73;6.30;;;2.40;99.90;;;;;;5093519;28;20482;-67
2020/12/04 04:10:02;;;;;;;11.67;7.27;;;2.40;99.90;;;;;;5093495;28;20460;-67
2020/12/04 04:12:28;;;;;;;11.33;7.07;;;2.50;99.90;;;;;;5092169;28;20891;-67
2020/12/04 04:14:54;;;;;;;11.40;7.40;;;2.70;99.90;;;;;;5093536;28;20420;-67
2020/12/04 04:17:21;;;;;;;9.43;7.37;;;2.70;99.90;;;;;;5093523;28;20506;-67
2020/12/04 04:19:47;;;;;;;13.77;8.00;;;2.60;99.90;;;;;;5093371;28;20460;-67
2020/12/04 04:22:14;;;;;;;11.37;6.60;;;2.60;99.90;;;;;;5093438;28;20436;-67
2020/12/04 04:24:40;;;;;;;10.77;6.97;;;2.50;99.90;;;;;;5093288;28;20443;-68
2020/12/04 04:27:07;;;;;;;11.30;6.90;;;2.50;99.90;;;;;;5093272;28;20491;-68
2020/12/04 04:29:33;;;;;;;10.33;6.80;;;2.50;99.90;;;;;;5093312;28;20464;-68
2020/12/04 04:31:59;;;;;;;8.07;5.90;;;2.40;99.90;;;;;;5093016;28;20943;-67
2020/12/04 04:34:25;;;;;;;12.63;7.43;;;2.50;99.90;;;;;;5093054;28;20476;-67
2020/12/04 04:36:51;;;;;;;10.70;6.13;;;2.60;99.90;;;;;;5092994;28;20436;-67
2020/12/04 04:39:18;;;;;;;8.80;5.87;;;2.80;99.90;;;;;;5093039;28;20464;-67
2020/12/04 04:41:45;;;;;;;10.20;6.40;;;2.90;99.90;;;;;;5093218;28;20444;-68
2020/12/04 04:44:12;;;;;;;10.23;5.73;;;2.90;99.90;;;;;;5092982;28;20946;-67
2020/12/04 04:46:43;;;;;;;9.07;5.63;;;2.80;99.90;;;;;;5093153;28;20580;-68
2020/12/04 04:49:13;;;;;;;10.27;6.03;;;2.80;99.90;;;;;;5093156;28;20460;-67
2020/12/04 04:51:41;;;;;;;10.30;5.20;;;2.70;99.90;;;;;;5093179;28;20418;-67
2020/12/04 04:54:09;;;;;;;9.17;6.33;;;2.70;99.90;;;;;;5093142;28;20494;-68
2020/12/04 04:56:36;;;;;;;8.93;5.97;;;2.70;99.90;;;;;;5093165;28;20416;-67
2020/12/04 04:59:06;;;;;;;9.17;5.80;;;2.80;99.90;;;;;;5092973;28;20440;-68
2020/12/04 05:01:33;;;;;;;12.10;6.10;;;2.80;99.90;;;;;;5093105;28;20471;-68
2020/12/04 05:04:01;;;;;;;9.33;5.30;;;2.80;99.90;;;;;;5093043;28;20816;-68
2020/12/04 05:06:34;;;;;;;5.67;4.73;;;2.80;99.90;;;;;;5092974;28;20472;-68
2020/12/04 05:09:01;;;;;;;13.73;5.97;;;2.80;99.90;;;;;;5092612;28;20489;-68
2020/12/04 05:11:28;;;;;;;7.53;4.50;;;2.80;99.90;;;;;;5092954;28;20447;-68
2020/12/04 05:14:17;;;;;;;8.67;6.00;;;2.90;99.90;;;;;;5092937;28;20462;-68
2020/12/04 05:16:45;;;;;;;8.73;5.37;;;3.00;99.90;;;;;;5092958;28;20420;-68
2020/12/04 05:19:12;;;;;;;7.37;4.80;;;3.10;99.90;;;;;;5092824;28;20456;-68
2020/12/04 05:21:39;;;;;;;8.83;5.20;;;3.10;99.90;;;;;;5092849;28;20435;-68
2020/12/04 05:24:05;;;;;;;6.70;4.80;;;3.10;99.90;;;;;;5094654;28;20801;-68
2020/12/04 05:26:33;;;;;;;11.63;5.33;;;3.10;99.90;;;;;;5096392;28;20475;-68
2020/12/04 05:29:00;;;;;;;8.80;5.50;;;3.10;99.90;;;;;;5096374;28;20448;-68
2020/12/04 05:31:32;;;;;;;7.80;5.63;;;3.10;99.90;;;;;;5096361;28;20443;-68
2020/12/04 05:33:59;;;;;;;6.87;4.80;;;3.10;99.90;;;;;;5096118;28;20475;-68
2020/12/04 05:36:28;;;;;;;8.70;5.00;;;3.10;99.90;;;;;;5096326;28;20431;-68
2020/12/04 05:38:55;;;;;;;5.10;3.63;;;3.20;99.90;;;;;;5095881;28;20935;-68
2020/12/04 05:41:21;;;;;;;6.63;4.17;;;3.30;99.90;;;;;;5095910;28;20439;-68
2020/12/04 05:43:49;;;;;;;5.80;4.13;;;3.40;99.90;;;;;;5096181;28;20507;-68
2020/12/04 05:46:20;;;;;;;11.00;3.63;;;3.40;99.90;;;;;;5096053;28;20566;-68
2020/12/04 05:48:57;;;;;;;5.90;3.70;;;3.50;99.90;;;;;;5096098;28;20447;-68
2020/12/04 05:51:25;;;;;;;4.70;3.00;;;3.50;99.90;;;;;;5095976;28;20443;-68
2020/12/04 05:53:53;;;;;;;5.27;3.80;;;3.60;99.90;;;;;;5095968;28;20526;-68
2020/12/04 05:56:19;;;;;;;4.20;3.07;;;3.70;99.90;;;;;;5095623;28;20440;-69
2020/12/04 05:58:47;;;;;;;4.67;3.40;;;3.70;99.90;;;;;;5095894;28;20473;-68
2020/12/04 06:01:16;;;;;;;3.60;2.67;;;3.70;99.90;;;;;;5095825;28;20811;-68
2020/12/04 06:03:43;;;;;;;5.03;2.93;;;3.70;99.90;;;;;;5095770;28;20497;-68
2020/12/04 06:06:14;;;;;;;3.10;2.60;;;3.80;99.90;;;;;;5095787;28;20479;-68
2020/12/04 06:08:41;;;;;;;3.67;3.30;;;3.80;99.90;;;;;;5095458;28;20435;-69
2020/12/04 06:11:08;;;;;;;5.43;3.20;;;3.90;99.90;;;;;;5095179;28;20970;-68
2020/12/04 06:13:35;;;;;;;4.43;2.90;;;4.00;99.90;;;;;;5095579;28;20436;-68
2020/12/04 06:16:12;;;;;;;4.43;3.40;;;4.00;99.90;;;;;;5095287;28;20424;-68
2020/12/04 06:18:39;;;;;;;4.87;3.10;;;4.00;99.90;;;;;;5095755;28;20486;-68
2020/12/04 06:21:05;;;;;;;4.70;3.17;;;4.00;99.90;;;;;;5095338;28;20850;-68
2020/12/04 06:23:33;;;;;;;8.00;3.37;;;4.10;99.90;;;;;;5095097;28;20962;-69
2020/12/04 06:26:07;;;;;;;3.23;2.60;;;4.00;99.90;;;;;;5095317;28;20422;-68
2020/12/04 06:28:37;;;;;;;4.63;3.03;;;3.90;99.90;;;;;;5095520;28;20511;-68
2020/12/04 06:31:09;;;;;;;5.40;3.30;;;4.00;99.90;;;;;;5094879;28;20463;-68
2020/12/04 06:33:44;;;;;;;4.83;3.27;;;4.00;99.90;;;;;;5094794;28;20444;-68
2020/12/04 06:36:14;;;;;;;6.57;4.20;;;4.00;99.90;;;;;;5094219;28;20416;-67
2020/12/04 06:38:48;;;;;;;6.37;3.73;;;4.10;99.90;;;;;;5094795;28;20914;-69
2020/12/04 06:41:25;;;;;;;3.20;2.90;;;4.10;99.90;;;;;;5095044;28;20424;-69
2020/12/04 06:43:54;;;;;;;4.90;3.23;;;4.10;99.90;;;;;;5095021;28;20428;-69
2020/12/04 06:46:41;;;;;;;3.83;3.50;;;4.10;99.90;;;;;;5094757;28;20486;-69
2020/12/04 06:49:38;;;;;;;5.20;3.80;;;4.00;99.90;;;;;;5094809;28;20452;-69
2020/12/04 06:52:10;;;;;;;3.83;3.10;;;4.00;99.90;;;;;;5094842;28;20505;-69
2020/12/04 06:54:39;;;;;;;3.57;3.10;;;4.00;99.90;;;;;;5094809;28;20846;-69
2020/12/04 06:57:05;;;;;;;6.10;3.40;;;3.90;99.90;;;;;;5094766;28;20436;-69
2020/12/04 06:59:33;;;;;;;5.03;3.57;;;3.90;99.90;;;;;;5094647;28;20467;-69
2020/12/04 07:02:01;;;;;;;8.33;4.07;;;3.90;99.90;;;;;;5094626;28;20758;-69
2020/12/04 07:04:29;;;;;;;3.90;3.33;;;4.10;99.90;;;;;;5094573;28;20843;-69
2020/12/04 07:07:08;;;;;;;3.73;3.40;;;4.10;99.90;;;;;;5094719;28;20471;-69
2020/12/04 07:09:35;;;;;;;4.90;3.10;;;4.20;99.90;;;;;;5094422;28;20463;-69
2020/12/04 07:12:03;;;;;;;6.60;3.80;;;4.00;99.90;;;;;;5094269;28;20440;-68
2020/12/04 07:14:29;;;;;;;4.00;3.17;;;3.90;99.90;;;;;;5094322;28;20443;-68
2020/12/04 07:16:56;;;;;;;3.63;3.33;;;4.00;99.90;;;;;;5093979;28;20932;-68
2020/12/04 07:19:23;;;;;;;3.47;2.97;;;4.00;99.90;;;;;;5094141;28;20452;-68
2020/12/04 07:21:49;;;;;;;4.10;3.10;;;4.10;99.90;;;;;;5094093;28;20440;-68
2020/12/04 07:24:16;;;;;;;10.20;3.30;;;4.10;99.90;;;;;;5094101;28;20447;-68
2020/12/04 07:26:49;;;;;;;4.50;3.63;;;4.10;99.90;;;;;;5094118;28;20550;-68
2020/12/04 07:29:16;;;;;;;3.73;2.80;;;4.00;99.90;;;;;;5094071;28;20459;-68
2020/12/04 07:31:46;;;;;;;5.30;3.47;;;4.00;99.90;;;;;;5094088;28;20444;-68
2020/12/04 07:34:13;;;;;;;5.50;3.33;;;4.00;99.90;;;;;;5094181;28;20475;-68
2020/12/04 07:36:48;;;;;;;4.80;3.13;;;4.00;99.90;;;;;;5093957;28;20447;-68
2020/12/04 07:39:25;;;;;;;5.13;3.03;;;3.90;99.90;;;;;;5093900;28;20505;-68
2020/12/04 07:41:52;;;;;;;5.90;3.80;;;3.90;99.90;;;;;;5093962;28;20424;-68
2020/12/04 07:44:30;;;;;;;4.83;3.40;;;3.90;99.90;;;;;;5093854;28;20440;-68
2020/12/04 07:47:11;;;;;;;5.10;3.77;;;3.90;99.90;;;;;;5093550;28;20468;-68
2020/12/04 07:49:42;;;;;;;4.30;3.43;;;3.80;99.90;;;;;;5093451;28;20459;-68
2020/12/04 07:52:14;;;;;;;5.97;3.80;;;3.80;99.90;;;;;;5093802;28;20428;-68
2020/12/04 07:54:41;;;;;;;5.27;3.60;;;3.90;99.90;;;;;;5093765;28;20440;-68
2020/12/04 07:57:08;;;;;;;5.90;3.70;;;4.00;99.90;;;;;;5093997;28;20459;-69
2020/12/04 07:59:36;;;;;;;3.40;3.10;;;4.00;99.90;;;;;;5093650;28;20467;-69
2020/12/04 08:02:05;;;;;;;4.37;3.90;;;4.00;99.90;;;;;;5093240;28;20474;-69
2020/12/04 08:04:32;;;;;;;5.23;4.00;;;4.00;99.90;;;;;;5093827;28;20440;-68
2020/12/04 08:07:09;;;;;;;6.50;4.47;;;4.10;99.90;;;;;;5093233;28;20475;-68
2020/12/04 08:09:40;;;;;;;7.00;4.50;;;4.10;99.90;;;;;;5093424;28;20463;-68
2020/12/04 08:12:12;;;;;;;6.23;4.10;;;4.30;99.90;;;;;;5093542;28;20442;-68
2020/12/04 08:14:47;;;;;;;5.33;3.90;;;4.20;99.90;;;;;;5093535;28;20413;-68
2020/12/04 08:17:19;;;;;;;6.03;4.37;;;4.10;99.90;;;;;;5093470;28;20431;-69
2020/12/04 08:19:46;;;;;;;8.57;5.30;;;4.10;99.90;;;;;;5093328;28;20459;-69
2020/12/04 08:22:12;;;;;;;9.63;4.73;;;4.30;99.90;;;;;;5093406;28;20446;-69
2020/12/04 08:24:40;;;;;;;9.30;4.63;;;4.30;99.90;;;;;;5093078;28;20800;-69
2020/12/04 08:27:09;;;;;;;6.50;4.40;;;4.30;99.90;;;;;;5093895;28;20470;-69
2020/12/04 08:29:37;;;;;;;5.27;4.07;;;4.10;99.90;;;;;;5093307;28;20550;-70
2020/12/04 08:32:10;;;;;;;8.50;5.00;;;4.10;99.90;;;;;;5093356;28;20447;-70
2020/12/04 08:34:36;;;;;;;5.50;4.33;;;4.00;99.90;;;;;;5092775;28;21067;-70
2020/12/04 08:37:05;;;;;;;6.90;4.10;;;4.00;99.90;;;;;;5093260;28;20436;-70
2020/12/04 08:39:46;;;;;;;6.83;4.13;;;4.20;99.90;;;;;;5093257;28;20459;-70
2020/12/04 08:42:21;;;;;;;6.70;4.50;;;4.20;99.90;;;;;;5093286;28;20423;-70
2020/12/04 08:44:55;;;;;;;9.50;4.20;;;4.20;99.90;;;;;;5093270;28;20423;-70
2020/12/04 08:47:29;;;;;;;5.27;3.93;;;4.40;99.90;;;;;;5092779;28;20483;-70
2020/12/04 08:49:56;;;;;;;6.20;3.97;;;4.50;99.90;;;;;;5092858;28;20455;-70
2020/12/04 08:52:47;;;;;;;7.20;3.93;;;4.60;99.90;;;;;;5093536;28;20609;-69
2020/12/04 08:55:16;;;;;;;6.07;4.00;;;4.80;99.90;;;;;;5092824;28;20425;-69
2020/12/04 08:57:43;;;;;;;5.50;3.70;;;4.90;99.90;;;;;;5093096;28;20435;-69
2020/12/04 09:00:13;;;;;;;8.57;4.33;;;5.10;99.90;;;;;;5096900;28;20456;-69
2020/12/04 09:02:40;;;;;;;7.87;4.07;;;5.00;99.90;;;;;;5096864;28;20435;-69
2020/12/04 09:05:09;;;;;;;6.33;4.47;;;5.00;99.90;;;;;;5096872;28;20454;-69
2020/12/04 09:07:37;;;;;;;5.83;4.27;;;5.10;99.90;;;;;;5096716;28;20509;-69
2020/12/04 09:10:05;;;;;;;5.57;4.20;;;4.90;99.90;;;;;;5096381;28;20985;-69
2020/12/04 09:12:31;;;;;;;5.00;3.87;;;4.80;99.90;;;;;;5096680;28;20435;-69
2020/12/04 09:14:57;;;;;;;5.13;3.70;;;4.80;99.90;;;;;;5096786;28;20424;-69
2020/12/04 09:17:24;;;;;;;6.30;4.13;;;4.80;99.90;;;;;;5096616;28;20435;-69
2020/12/04 09:19:51;;;;;;;8.47;4.37;;;4.80;99.90;;;;;;5096563;28;20462;-69
2020/12/04 09:22:17;;;;;;;6.00;4.47;;;4.90;99.90;;;;;;5096598;28;20880;-69
2020/12/04 09:24:44;;;;;;;6.00;4.07;;;4.90;99.90;;;;;;5096172;28;20931;-69
2020/12/04 09:27:11;;;;;;;7.93;3.67;;;4.80;99.90;;;;;;5096420;28;20479;-69
2020/12/04 09:29:37;;;;;;;7.90;5.10;;;4.90;99.90;;;;;;5096087;28;20970;-69
2020/12/04 09:32:09;;;;;;;6.07;4.40;;;4.90;99.90;;;;;;5096347;28;20466;-69
2020/12/04 09:34:35;;;;;;;7.80;5.00;;;5.00;99.90;;;;;;5095840;28;20475;-69
2020/12/04 09:37:23;;;;;;;8.63;4.50;;;5.00;99.90;;;;;;5096309;28;20511;-69
2020/12/04 09:39:52;;;;;;;7.17;5.20;;;5.10;99.90;;;;;;5096214;28;20463;-69
2020/12/04 09:42:20;;;;;;;7.40;5.13;;;5.10;99.90;;;;;;5095915;28;20447;-69
2020/12/04 09:44:47;;;;;;;7.90;5.57;;;5.10;99.90;;;;;;5095828;28;20815;-69
2020/12/04 09:47:14;;;;;;;6.73;5.23;;;5.10;99.90;;;;;;5096099;28;20506;-69
2020/12/04 09:49:41;;;;;;;7.80;5.83;;;5.10;99.90;;;;;;5096028;28;20463;-69
2020/12/04 09:52:08;;;;;;;10.80;6.67;;;5.00;99.90;;;;;;5096057;28;20487;-69
2020/12/04 09:54:37;;;;;;;7.27;5.20;;;5.00;99.90;;;;;;5095998;28;20436;-69
2020/12/04 09:57:04;;;;;;;9.53;5.50;;;5.10;99.90;;;;;;5095900;28;20439;-69
2020/12/04 09:59:31;;;;;;;9.47;5.20;;;5.00;99.90;;;;;;5095523;28;20464;-69
2020/12/04 10:01:57;;;;;;;7.17;4.90;;;5.00;99.90;;;;;;5095819;28;20447;-69
2020/12/04 10:04:24;;;;;;;6.97;5.10;;;5.10;99.90;;;;;;5095489;28;20451;-69
2020/12/04 10:06:51;;;;;;;9.10;5.77;;;5.30;99.90;;;;;;5095685;28;20467;-69
2020/12/04 10:09:18;;;;;;;6.57;4.57;;;5.40;99.90;;;;;;5095254;28;20498;-69
2020/12/04 10:11:46;;;;;;;6.33;4.20;;;5.30;99.90;;;;;;5095690;28;20827;-69
2020/12/04 10:14:14;;;;;;;6.13;4.57;;;5.40;99.90;;;;;;5095625;28;20466;-69
2020/12/04 10:16:41;;;;;;;6.70;4.50;;;5.40;99.90;;;;;;5095296;28;20416;-69
2020/12/04 10:19:07;;;;;;;9.40;5.60;;;5.30;99.90;;;;;;5095451;28;20478;-69
2020/12/04 10:21:35;;;;;;;8.73;5.47;;;5.30;99.90;;;;;;5095485;28;20425;-69
2020/12/04 10:24:02;;;;;;;6.17;5.20;;;5.30;99.90;;;;;;5095147;28;20899;-69
2020/12/04 10:26:28;;;;;;;8.90;5.70;;;5.20;99.90;;;;;;5095328;28;20420;-69
2020/12/04 10:28:55;;;;;;;8.73;5.23;;;5.20;99.90;;;;;;5095252;28;20416;-69
2020/12/04 10:31:22;;;;;;;5.70;4.40;;;5.10;99.90;;;;;;5095118;28;20896;-69
2020/12/04 10:33:48;;;;;;;7.53;5.20;;;5.10;99.90;;;;;;5095079;28;20828;-69
2020/12/04 10:36:14;;;;;;;7.23;5.10;;;5.00;99.90;;;;;;5094919;28;20934;-69
2020/12/04 10:38:41;;;;;;;6.50;4.63;;;5.10;99.90;;;;;;5095185;28;20416;-69
2020/12/04 10:41:08;;;;;;;12.37;5.13;;;5.20;99.90;;;;;;5094998;28;20460;-69
2020/12/04 10:43:34;;;;;;;6.73;4.77;;;5.10;99.90;;;;;;5094769;28;20427;-69
2020/12/04 10:46:01;;;;;;;7.30;5.40;;;5.10;99.90;;;;;;5095002;28;20428;-69
2020/12/04 10:48:27;;;;;;;7.00;5.17;;;5.30;99.90;;;;;;5094870;28;20464;-69
2020/12/04 10:50:54;;;;;;;8.40;5.00;;;5.30;99.90;;;;;;5094732;28;20457;-69
2020/12/04 10:53:22;;;;;;;6.60;5.20;;;5.20;99.90;;;;;;5094564;28;20888;-69
2020/12/04 10:55:49;;;;;;;6.20;4.90;;;5.20;99.90;;;;;;5094838;28;20425;-69
2020/12/04 10:58:15;;;;;;;7.17;5.23;;;5.20;99.90;;;;;;5094466;28;20416;-69
2020/12/04 11:00:45;;;;;;;6.23;4.47;;;5.30;99.90;;;;;;5094659;28;20456;-69
2020/12/04 11:03:18;;;;;;;5.67;4.93;;;5.30;99.90;;;;;;5094556;28;20432;-69
2020/12/04 11:05:44;;;;;;;8.40;5.10;;;5.40;99.90;;;;;;5094568;28;20417;-69
2020/12/04 11:08:11;;;;;;;9.03;6.00;;;5.30;99.90;;;;;;5094404;28;20460;-69
2020/12/04 11:10:37;;;;;;;9.83;6.87;;;5.20;99.90;;;;;;5094314;28;20467;-69
2020/12/04 11:13:04;;;;;;;8.80;6.50;;;5.20;99.90;;;;;;5095297;28;20772;-69
2020/12/04 11:15:30;;;;;;;10.33;6.73;;;5.20;99.90;;;;;;5094108;28;20957;-69
2020/12/04 11:17:57;;;;;;;10.23;6.33;;;5.20;99.90;;;;;;5094882;28;20425;-69
2020/12/04 11:20:25;;;;;;;9.67;5.93;;;5.10;99.90;;;;;;5094043;28;20463;-69
2020/12/04 11:22:51;;;;;;;16.10;6.20;;;5.20;99.90;;;;;;5094029;28;20441;-69
2020/12/04 11:25:18;;;;;;;8.33;6.03;;;5.20;99.90;;;;;;5094228;28;20425;-69
2020/12/04 11:27:46;;;;;;;9.60;6.60;;;5.30;99.90;;;;;;5094171;28;20559;-69
2020/12/04 11:30:13;;;;;;;10.13;6.40;;;5.30;99.90;;;;;;5094134;28;20459;-68
2020/12/04 11:32:40;;;;;;;11.07;5.70;;;5.30;99.90;;;;;;5094158;28;20432;-69
2020/12/04 11:35:08;;;;;;;11.47;7.20;;;5.30;99.90;;;;;;5093730;28;20472;-70
2020/12/04 11:37:35;;;;;;;11.93;7.03;;;5.30;99.90;;;;;;5094600;28;20444;-69
2020/12/04 11:40:02;;;;;;;8.50;6.60;;;5.30;99.90;;;;;;5093999;28;20460;-69
2020/12/04 11:42:28;;;;;;;8.23;5.60;;;5.40;99.90;;;;;;5093989;28;20424;-69
2020/12/04 11:44:55;;;;;;;9.80;5.70;;;5.40;99.90;;;;;;5093699;28;20432;-69
2020/12/04 11:47:21;;;;;;;10.57;6.23;;;5.40;99.90;;;;;;5093482;28;20962;-69
2020/12/04 11:49:48;;;;;;;10.77;6.03;;;5.30;99.90;;;;;;5093736;28;20452;-69
2020/12/04 11:52:15;;;;;;;7.77;5.83;;;5.30;99.90;;;;;;5094644;28;20784;-69
2020/12/04 11:54:43;;;;;;;10.70;5.90;;;5.20;99.90;;;;;;5093502;28;20912;-69
2020/12/04 11:57:09;;;;;;;11.17;5.73;;;5.20;99.90;;;;;;5093774;28;20417;-69
2020/12/04 11:59:35;;;;;;;12.80;6.00;;;5.20;99.90;;;;;;5093378;28;20974;-69
2020/12/04 12:02:01;;;;;;;9.00;5.87;;;5.20;99.90;;;;;;5093443;28;20939;-69
2020/12/04 12:04:28;;;;;;;9.10;5.40;;;5.20;99.90;;;;;;5093658;28;20424;-69
2020/12/04 12:06:54;;;;;;;9.60;5.90;;;5.20;99.90;;;;;;5093578;28;20464;-69
2020/12/04 12:09:20;;;;;;;8.37;6.07;;;5.20;99.90;;;;;;5093567;28;20463;-69
2020/12/04 12:11:47;;;;;;;9.17;6.37;;;5.10;99.90;;;;;;5093642;28;20417;-69
2020/12/04 12:14:13;;;;;;;7.53;5.80;;;5.10;99.90;;;;;;5093575;28;20428;-69
2020/12/04 12:16:44;;;;;;;7.90;6.10;;;5.10;99.90;;;;;;5093255;28;20927;-69
2020/12/04 12:19:10;;;;;;;12.23;5.90;;;5.10;99.90;;;;;;5093123;28;20986;-69
2020/12/04 12:21:40;;;;;;;9.93;5.87;;;5.20;99.90;;;;;;5093529;28;20435;-69
2020/12/04 12:24:06;;;;;;;9.13;6.13;;;5.20;99.90;;;;;;5093466;28;20425;-69
2020/12/04 12:26:32;;;;;;;7.60;5.43;;;5.20;99.90;;;;;;5093383;28;20417;-69
2020/12/04 12:29:00;;;;;;;9.53;5.50;;;5.30;99.90;;;;;;5092991;28;20424;-69
2020/12/04 12:31:26;;;;;;;9.40;6.20;;;5.20;99.90;;;;;;5093284;28;20922;-70
2020/12/04 12:33:52;;;;;;;8.70;5.97;;;5.20;99.90;;;;;;5094988;28;20982;-70
2020/12/04 12:36:18;;;;;;;11.10;5.93;;;5.20;99.90;;;;;;5097506;28;20424;-69
2020/12/04 12:38:45;;;;;;;9.03;5.57;;;5.20;99.90;;;;;;5097623;28;20424;-69
2020/12/04 12:41:11;;;;;;;8.17;5.40;;;5.30;99.90;;;;;;5097312;28;20456;-69
2020/12/04 12:43:37;;;;;;;7.40;5.90;;;5.30;99.90;;;;;;5097578;28;20787;-69
2020/12/04 12:46:04;;;;;;;7.40;5.80;;;5.30;99.90;;;;;;5097027;28;20424;-69
2020/12/04 12:48:30;;;;;;;7.20;5.17;;;5.20;99.90;;;;;;5097209;28;20463;-69
2020/12/04 12:50:57;;;;;;;10.00;5.40;;;5.20;99.90;;;;;;5097637;28;20459;-69
2020/12/04 12:53:23;;;;;;;12.00;6.43;;;5.20;99.90;;;;;;5096918;28;20435;-69
2020/12/04 12:55:50;;;;;;;8.80;5.50;;;5.20;99.90;;;;;;5097133;28;20424;-69